Weather at Auckland Hobsonville Airport [CLOSED]

Public forecast

Using degrees Celsius for public forecast. Weather courtesy of forecast.io.

Closest aviation weather report (METAR) to Auckland Hobsonville Airport

Report is more than 6 hours old.

Closest report is RNZAF Base Auckland-Whenuapai, 1.7 nm (3.1 km) W. Retrieved 2020/11/29 21:00 UTC (2 months ago):

NZWP 292100Z 35005KT 320V020 15KM BKN013 OVC020 16/13 Q1005 TEMPO SCT015

Closest aviation forecast (TAF) to Auckland Hobsonville Airport

Closest forecast is Auckland International Airport, 14.4 nm (26.6 km) SSE. Retrieved 2021/01/26 18:03 UTC (5 hours ago):

TAF TAF NZAA 261702Z 2618/2718 18005KT 9999 BKN012 BECMG 2618/2620 SCT020 BECMG 2622/2700 24010KT BECMG 2707/2709 18005KT TEMPO 2712/2718 BKN014